createdAt,value
2019-06-26T00:00:18.828Z,98237.82
2019-06-26T00:02:47.471Z,98232.06
2019-06-26T00:05:16.314Z,98235.07
2019-06-26T00:07:46.183Z,98232.53
2019-06-26T00:10:15.711Z,98224.62
2019-06-26T00:12:45.002Z,98231.18
2019-06-26T00:15:14.641Z,98237.11
2019-06-26T00:17:45.911Z,98236.48
2019-06-26T00:20:15.037Z,98233.53
2019-06-26T00:22:43.622Z,98239.48
2019-06-26T00:25:13.051Z,98244.83
2019-06-26T00:27:41.655Z,98245.03
2019-06-26T00:30:10.595Z,98246.19
2019-06-26T00:32:39.263Z,98249.13
2019-06-26T00:35:07.875Z,98245.19
2019-06-26T00:37:36.569Z,98250.77
2019-06-26T00:40:07.250Z,98247.19
2019-06-26T00:42:35.876Z,98253.52
2019-06-26T00:45:06.261Z,98245.19
2019-06-26T00:47:34.886Z,98246.38
2019-06-26T00:50:04.444Z,98247.31
2019-06-26T00:52:33.079Z,98245.20
2019-06-26T00:55:01.673Z,98240.80
2019-06-26T00:57:30.328Z,98246.91
2019-06-26T01:00:02.995Z,98247.69
2019-06-26T01:02:31.658Z,98247.69
2019-06-26T01:05:01.898Z,98238.73
2019-06-26T01:07:30.463Z,98246.08
2019-06-26T01:09:58.993Z,98240.58
2019-06-26T01:12:27.585Z,98241.92
2019-06-26T01:14:56.121Z,98245.86
2019-06-26T01:17:27.154Z,98252.83
2019-06-26T01:19:55.708Z,98240.49
2019-06-26T01:22:24.363Z,98252.86
2019-06-26T01:24:52.926Z,98248.59
2019-06-26T01:27:21.611Z,98253.02
2019-06-26T01:29:50.235Z,98254.98
2019-06-26T01:32:18.798Z,98245.80
2019-06-26T01:34:47.309Z,98237.77
2019-06-26T01:37:15.821Z,98243.92
2019-06-26T01:39:44.367Z,98246.69
2019-06-26T01:42:13.021Z,98244.94
2019-06-26T01:44:41.756Z,98248.17
2019-06-26T01:47:10.359Z,98251.09
2019-06-26T01:49:38.907Z,98255.68
2019-06-26T01:52:07.475Z,98259.86
2019-06-26T01:54:35.965Z,98256.45
2019-06-26T01:57:04.642Z,98258.95
2019-06-26T01:59:33.140Z,98251.70
2019-06-26T02:02:01.720Z,98234.89
2019-06-26T02:04:30.292Z,98254.25
2019-06-26T02:06:58.902Z,98251.55
2019-06-26T02:09:27.571Z,98259.78
2019-06-26T02:11:56.097Z,98261.53
2019-06-26T02:14:30.943Z,98262.30
2019-06-26T02:16:55.006Z,98260.91
2019-06-26T02:19:23.626Z,98254.25
2019-06-26T02:21:52.228Z,98258.38
2019-06-26T02:24:20.866Z,98258.55
2019-06-26T02:26:49.431Z,98261.10
2019-06-26T02:29:18.101Z,98255.64
2019-06-26T02:31:46.680Z,98251.67
2019-06-26T02:34:15.195Z,98246.91
2019-06-26T02:36:43.912Z,98255.31
2019-06-26T02:39:12.508Z,98254.73
2019-06-26T02:41:41.033Z,98251.08
2019-06-26T02:44:09.565Z,98245.71
2019-06-26T02:46:38.213Z,98255.53
2019-06-26T02:49:06.823Z,98244.84
2019-06-26T02:51:35.427Z,98246.30
2019-06-26T02:54:04.436Z,98243.05
2019-06-26T02:56:33.078Z,98236.88
2019-06-26T02:59:01.687Z,98239.60
2019-06-26T03:01:30.379Z,98239.20
2019-06-26T03:03:59.040Z,98243.41
2019-06-26T03:06:27.691Z,98237.00
2019-06-26T03:08:56.288Z,98240.08
2019-06-26T03:11:24.923Z,98235.88
2019-06-26T03:13:53.563Z,98238.53
2019-06-26T03:16:24.586Z,98236.95
2019-06-26T03:18:53.246Z,98240.92
2019-06-26T03:21:21.742Z,98243.30
2019-06-26T03:23:50.397Z,98245.45
2019-06-26T03:26:20.573Z,98248.08
2019-06-26T03:28:49.111Z,98244.23
2019-06-26T03:31:17.604Z,98250.97
2019-06-26T03:33:46.111Z,98246.15
2019-06-26T03:36:14.607Z,98244.16
2019-06-26T03:38:43.222Z,98251.66
2019-06-26T03:41:11.787Z,98244.62
2019-06-26T03:43:40.378Z,98246.89
2019-06-26T03:46:09.097Z,98251.34
2019-06-26T03:48:37.668Z,98249.97
2019-06-26T03:51:06.357Z,98242.88
2019-06-26T03:53:34.830Z,98248.94
2019-06-26T03:56:03.424Z,98243.20
2019-06-26T03:58:31.910Z,98246.44
2019-06-26T04:01:00.450Z,98247.34
2019-06-26T04:03:28.948Z,98243.67
2019-06-26T04:06:00.428Z,98249.49
2019-06-26T04:08:28.928Z,98256.22
2019-06-26T04:10:57.441Z,98263.31
2019-06-26T04:13:25.955Z,98259.94
2019-06-26T04:15:54.566Z,98258.11
2019-06-26T04:18:23.108Z,98256.73
2019-06-26T04:20:51.758Z,98251.75
2019-06-26T04:23:20.324Z,98252.04
2019-06-26T04:25:49.002Z,98255.45
2019-06-26T04:28:17.486Z,98253.90
2019-06-26T04:30:46.070Z,98249.38
2019-06-26T04:33:14.654Z,98252.83
2019-06-26T04:35:43.196Z,98264.94
2019-06-26T04:38:11.873Z,98254.31
2019-06-26T04:40:43.211Z,98251.39
2019-06-26T04:43:11.874Z,98247.67
2019-06-26T04:45:40.570Z,98248.08
2019-06-26T04:48:09.201Z,98248.91
2019-06-26T04:50:37.784Z,98249.75
2019-06-26T04:53:06.421Z,98253.11
2019-06-26T04:55:35.010Z,98258.27
2019-06-26T04:58:03.719Z,98261.45
2019-06-26T05:00:32.325Z,98260.06
2019-06-26T05:03:00.963Z,98260.07
2019-06-26T05:05:39.045Z,98256.50
2019-06-26T05:07:59.869Z,98254.64
2019-06-26T05:10:28.383Z,98247.84
2019-06-26T05:12:57.000Z,98233.70
2019-06-26T05:15:25.652Z,98233.70
2019-06-26T05:17:54.299Z,98231.41
2019-06-26T05:20:23.566Z,98259.95
2019-06-26T05:22:52.195Z,98254.81
2019-06-26T05:25:20.910Z,98259.84
2019-06-26T05:27:49.521Z,98258.34
2019-06-26T05:30:18.739Z,98249.78
2019-06-26T05:32:47.552Z,98252.64
2019-06-26T05:35:16.308Z,98256.42
2019-06-26T05:37:44.886Z,98259.00
2019-06-26T05:40:14.388Z,98258.35
2019-06-26T05:42:42.992Z,98262.53
2019-06-26T05:45:12.541Z,98267.52
2019-06-26T05:47:41.309Z,98266.28
2019-06-26T05:50:11.089Z,98269.45
2019-06-26T05:52:42.541Z,98268.16
2019-06-26T05:55:09.993Z,98283.73
2019-06-26T05:57:41.813Z,98270.84
2019-06-26T06:00:10.738Z,98273.63
2019-06-26T06:02:39.424Z,98276.73
2019-06-26T06:05:11.559Z,98277.30
2019-06-26T06:07:40.237Z,98283.59
2019-06-26T06:10:10.401Z,98272.30
2019-06-26T06:12:39.005Z,98282.17
2019-06-26T06:15:08.261Z,98282.46
2019-06-26T06:17:37.209Z,98286.97
2019-06-26T06:20:08.478Z,98284.73
2019-06-26T06:22:37.145Z,98283.31
2019-06-26T06:25:06.836Z,98281.67
2019-06-26T06:27:35.537Z,98284.22
2019-06-26T06:30:07.627Z,98289.81
2019-06-26T06:32:36.206Z,98291.90
2019-06-26T06:35:06.744Z,98288.49
2019-06-26T06:37:35.419Z,98291.30
2019-06-26T06:40:06.239Z,98295.83
2019-06-26T06:42:34.901Z,98297.16
2019-06-26T06:45:04.927Z,98301.42
2019-06-26T06:47:33.581Z,98307.55
2019-06-26T06:50:02.308Z,98314.48
2019-06-26T06:52:30.801Z,98312.26
2019-06-26T06:54:59.405Z,98309.00
2019-06-26T06:57:28.014Z,98310.27
2019-06-26T06:59:56.618Z,98306.00
2019-06-26T07:02:25.321Z,98310.76
2019-06-26T07:04:53.896Z,98309.29
2019-06-26T07:07:22.462Z,98318.83
2019-06-26T07:09:52.538Z,98317.73
2019-06-26T07:12:21.154Z,98314.30
2019-06-26T07:14:49.778Z,98313.87
2019-06-26T07:17:21.020Z,98316.91
2019-06-26T07:19:48.655Z,98320.50
2019-06-26T07:22:17.403Z,98328.31
2019-06-26T07:24:46.037Z,98327.84
2019-06-26T07:27:14.625Z,98337.67
2019-06-26T07:29:43.118Z,98341.25
2019-06-26T07:32:11.635Z,98336.20
2019-06-26T07:34:40.365Z,98336.89
2019-06-26T07:37:08.948Z,98336.09
2019-06-26T07:39:37.580Z,98344.06
2019-06-26T07:42:06.168Z,98343.80
2019-06-26T07:44:34.712Z,98350.23
2019-06-26T07:47:43.209Z,98340.13
2019-06-26T07:50:03.887Z,98343.79
2019-06-26T07:52:32.498Z,98348.45
2019-06-26T07:55:01.200Z,98352.98
2019-06-26T07:57:30.981Z,98348.72
2019-06-26T07:59:59.524Z,98346.52
2019-06-26T08:02:28.427Z,98353.69
2019-06-26T08:04:57.122Z,98353.04
2019-06-26T08:07:25.765Z,98353.78
2019-06-26T08:09:54.380Z,98364.08
2019-06-26T08:12:22.937Z,98357.14
2019-06-26T08:14:51.516Z,98359.28
2019-06-26T08:17:20.149Z,98358.61
2019-06-26T08:19:48.816Z,98358.30
2019-06-26T08:22:17.396Z,98350.82
2019-06-26T08:24:46.050Z,98358.31
2019-06-26T08:27:14.630Z,98364.48
2019-06-26T08:29:43.184Z,98360.81
2019-06-26T08:32:11.754Z,98364.73
2019-06-26T08:34:40.337Z,98357.18
2019-06-26T08:37:08.891Z,98358.45
2019-06-26T08:39:37.493Z,98355.36
2019-06-26T08:42:05.977Z,98360.31
2019-06-26T08:44:34.672Z,98353.23
2019-06-26T08:47:03.132Z,98355.67
2019-06-26T08:49:31.799Z,98353.13
2019-06-26T08:52:00.561Z,98352.48
2019-06-26T08:54:29.228Z,98357.47
2019-06-26T08:56:57.821Z,98353.81
2019-06-26T08:59:26.561Z,98359.94
2019-06-26T09:01:55.044Z,98358.15
2019-06-26T09:04:23.718Z,98365.48
2019-06-26T09:06:52.277Z,98364.34
2019-06-26T09:09:20.856Z,98356.73
2019-06-26T09:11:49.553Z,98354.39
2019-06-26T09:14:19.684Z,98360.93
2019-06-26T09:16:48.436Z,98356.55
2019-06-26T09:19:16.931Z,98363.33
2019-06-26T09:21:45.504Z,98362.52
2019-06-26T09:24:34.535Z,98363.45
2019-06-26T09:40:49.409Z,98358.70
2019-06-26T09:54:13.350Z,98360.90
2019-06-26T09:56:43.245Z,98364.55
2019-06-26T09:59:11.897Z,98355.80
2019-06-26T10:01:40.560Z,98363.09
2019-06-26T10:04:09.199Z,98358.34
2019-06-26T10:06:37.861Z,98355.37
2019-06-26T10:09:09.981Z,98349.30
2019-06-26T10:11:38.662Z,98351.72
2019-06-26T10:14:10.360Z,98349.53
2019-06-26T10:16:38.944Z,98342.56
2019-06-26T10:19:10.493Z,98337.22
2019-06-26T10:21:39.393Z,98337.16
2019-06-26T10:24:08.127Z,98339.79
2019-06-26T10:26:36.913Z,98341.64
2019-06-26T10:29:05.586Z,98328.75
2019-06-26T10:31:42.733Z,98330.52
2019-06-26T10:34:11.755Z,98331.27
2019-06-26T10:36:40.610Z,98329.91
2019-06-26T10:39:13.682Z,98341.37
2019-06-26T10:41:46.048Z,98331.50
2019-06-26T10:44:15.874Z,98328.50
2019-06-26T10:46:44.504Z,98318.80
2019-06-26T10:49:26.503Z,98320.25
2019-06-26T10:51:43.551Z,98317.56
2019-06-26T10:54:12.288Z,98318.86
2019-06-26T10:56:40.878Z,98308.74
2019-06-26T10:59:09.416Z,98304.30
2019-06-26T11:01:38.108Z,98302.77
2019-06-26T11:04:07.016Z,98297.72
2019-06-26T11:06:37.320Z,98293.55
2019-06-26T11:09:08.608Z,98297.11
2019-06-26T11:11:38.890Z,98306.69
2019-06-26T11:14:07.525Z,98308.36
2019-06-26T11:16:36.055Z,98308.34
2019-06-26T11:19:06.288Z,98303.53
2019-06-26T11:21:34.960Z,98300.20
2019-06-26T11:24:03.559Z,98308.84
2019-06-26T11:26:32.232Z,98301.00
2019-06-26T11:29:00.869Z,98293.91
2019-06-26T11:31:29.474Z,98292.75
2019-06-26T11:33:58.059Z,98296.42
2019-06-26T11:36:26.738Z,98297.97
2019-06-26T11:38:55.430Z,98293.71
2019-06-26T11:41:24.122Z,98272.35
2019-06-26T11:43:52.712Z,98277.55
2019-06-26T11:46:21.503Z,98267.43
2019-06-26T11:48:50.279Z,98270.31
2019-06-26T11:51:20.533Z,98273.98
2019-06-26T11:53:51.864Z,98270.91
2019-06-26T11:56:20.518Z,98273.86
2019-06-26T11:58:49.069Z,98262.38
2019-06-26T12:01:17.825Z,98256.09
2019-06-26T12:03:46.378Z,98261.86
2019-06-26T12:06:18.846Z,98255.94
2019-06-26T12:08:45.332Z,98249.89
2019-06-26T12:11:13.928Z,98258.86
2019-06-26T12:13:42.459Z,98260.59
2019-06-26T12:16:10.977Z,98259.55
2019-06-26T12:18:39.541Z,98261.34
2019-06-26T12:21:08.148Z,98240.33
2019-06-26T12:23:36.704Z,98264.59
2019-06-26T12:26:05.351Z,98269.53
2019-06-26T12:28:35.519Z,98258.18
2019-06-26T12:31:06.827Z,98261.83
2019-06-26T12:33:35.378Z,98249.41
2019-06-26T12:36:04.298Z,98245.45
2019-06-26T12:38:32.859Z,98245.00
2019-06-26T12:41:01.447Z,98253.22
2019-06-26T12:43:30.028Z,98246.80
2019-06-26T12:45:58.519Z,98250.66
2019-06-26T12:48:30.094Z,98254.30
2019-06-26T12:50:58.935Z,98244.27
2019-06-26T12:53:29.548Z,98242.14
2019-06-26T12:55:57.908Z,98244.28
2019-06-26T12:58:26.486Z,98235.74
2019-06-26T13:00:55.073Z,98230.73
2019-06-26T13:03:23.619Z,98233.94
2019-06-26T13:05:52.277Z,98232.28
2019-06-26T13:08:20.963Z,98227.64
2019-06-26T13:10:50.598Z,98231.52
2019-06-26T13:13:19.235Z,98247.73
2019-06-26T13:15:51.065Z,98235.73
2019-06-26T13:18:19.783Z,98237.39
2019-06-26T13:20:53.208Z,98227.50
2019-06-26T13:23:19.807Z,98230.91
2019-06-26T13:25:48.479Z,98221.26
2019-06-26T13:28:17.048Z,98232.28
2019-06-26T13:30:45.783Z,98233.34
2019-06-26T13:33:14.247Z,98226.75
2019-06-26T13:35:43.070Z,98227.30
2019-06-26T13:38:11.695Z,98229.07
2019-06-26T13:40:41.199Z,98225.50
2019-06-26T13:43:09.876Z,98213.95
2019-06-26T13:45:38.423Z,98212.11
2019-06-26T13:48:07.098Z,98213.58
2019-06-26T13:50:35.757Z,98206.12
2019-06-26T13:53:05.931Z,98214.84
2019-06-26T13:55:34.500Z,98219.53
2019-06-26T13:58:03.097Z,98221.88
2019-06-26T14:00:31.774Z,98216.72
2019-06-26T14:03:00.358Z,98217.81
2019-06-26T14:05:29.681Z,98218.77
2019-06-26T14:07:58.373Z,98207.43
2019-06-26T14:10:27.120Z,98204.53
2019-06-26T14:12:57.289Z,98199.77
2019-06-26T14:15:25.914Z,98200.25
2019-06-26T14:17:54.453Z,98202.36
2019-06-26T14:20:23.141Z,98198.98
2019-06-26T14:22:51.892Z,98199.12
2019-06-26T14:25:20.551Z,98198.72
2019-06-26T14:27:49.202Z,98198.19
2019-06-26T14:30:18.137Z,98184.36
2019-06-26T14:32:49.595Z,98184.28
2019-06-26T14:35:19.914Z,98182.63
2019-06-26T14:37:48.693Z,98183.23
2019-06-26T14:40:17.491Z,98187.61
2019-06-26T14:42:46.238Z,98192.48
2019-06-26T14:45:14.958Z,98183.70
2019-06-26T14:47:43.762Z,98176.03
2019-06-26T14:50:15.937Z,98188.72
2019-06-26T14:52:50.888Z,98179.32
2019-06-26T14:55:37.151Z,98170.80
2019-06-26T14:58:19.047Z,98178.13
2019-06-26T15:01:49.055Z,98169.27
2019-06-26T15:06:27.894Z,98165.03
2019-06-26T15:12:02.293Z,98167.94
2019-06-26T15:14:35.199Z,98160.39
2019-06-26T15:17:05.362Z,98163.63
2019-06-26T15:19:35.560Z,98153.66
2019-06-26T15:22:08.429Z,98155.13
2019-06-26T15:24:40.705Z,98153.86
2019-06-26T15:27:12.699Z,98148.17
2019-06-26T15:29:44.662Z,98152.25
2019-06-26T15:32:13.475Z,98147.22
2019-06-26T15:34:46.543Z,98154.70
2019-06-26T15:37:16.988Z,98144.30
2019-06-26T15:39:54.464Z,98137.83
2019-06-26T15:42:23.127Z,98141.27
2019-06-26T15:44:51.751Z,98139.17
2019-06-26T15:47:23.339Z,98137.45
2019-06-26T15:49:56.290Z,98146.00
2019-06-26T15:52:25.064Z,98134.08
2019-06-26T15:54:54.300Z,98127.65
2019-06-26T15:57:22.917Z,98130.92
2019-06-26T15:59:53.917Z,98132.20
2019-06-26T16:02:21.872Z,98129.61
2019-06-26T16:04:52.335Z,98130.12
2019-06-26T16:07:21.012Z,98132.33
2019-06-26T16:09:51.352Z,98129.73
2019-06-26T16:12:20.316Z,98136.23
2019-06-26T16:14:49.391Z,98132.03
2019-06-26T16:17:30.384Z,98127.53
2019-06-26T16:20:01.219Z,98132.63
2019-06-26T16:22:32.609Z,98120.69
2019-06-26T16:25:05.632Z,98119.80
2019-06-26T16:27:34.590Z,98128.08
2019-06-26T16:30:03.648Z,98124.63
2019-06-26T16:32:32.349Z,98120.64
2019-06-26T16:35:01.117Z,98121.84
2019-06-26T16:37:29.884Z,98121.52
2019-06-26T16:43:02.457Z,98119.37
2019-06-26T16:45:35.553Z,98121.20
2019-06-26T16:48:06.497Z,98119.75
2019-06-26T16:50:41.667Z,98116.57
2019-06-26T16:53:11.456Z,98116.00
2019-06-26T16:58:54.691Z,98126.11
2019-06-26T17:01:24.841Z,98119.84
2019-06-26T17:04:11.593Z,98118.23
2019-06-26T17:06:49.586Z,98118.73
2019-06-26T17:09:18.347Z,98124.05
2019-06-26T17:12:12.294Z,98120.39
2019-06-26T17:14:39.948Z,98128.14
2019-06-26T17:17:10.868Z,98129.78
2019-06-26T17:19:39.605Z,98128.73
2019-06-26T17:22:17.967Z,98131.83
2019-06-26T17:24:58.089Z,98129.34
2019-06-26T17:27:42.237Z,98133.17
2019-06-26T17:30:11.951Z,98134.73
2019-06-26T17:32:41.749Z,98135.78
2019-06-26T17:35:10.447Z,98132.38
2019-06-26T17:37:40.564Z,98139.45
2019-06-26T17:40:13.245Z,98137.80
2019-06-26T17:42:41.931Z,98134.26
2019-06-26T17:48:09.795Z,98141.48
2019-06-26T17:50:38.591Z,98137.67
2019-06-26T17:53:20.628Z,98136.41
2019-06-26T17:55:37.614Z,98135.73
2019-06-26T17:58:07.505Z,98143.34
2019-06-26T18:00:37.951Z,98136.44
2019-06-26T18:03:06.720Z,98126.52
2019-06-26T18:05:35.334Z,98130.34
2019-06-26T18:08:06.252Z,98136.56
2019-06-26T18:12:16.173Z,98129.84
2019-06-26T18:13:11.116Z,98128.76
2019-06-26T18:15:41.473Z,98134.91
2019-06-26T18:18:11.621Z,98132.15
2019-06-26T18:20:40.255Z,98137.72
2019-06-26T18:23:10.490Z,98136.91
2019-06-26T18:25:39.148Z,98139.45
2019-06-26T18:28:09.225Z,98140.17
2019-06-26T18:30:38.221Z,98142.51
2019-06-26T18:33:10.757Z,98141.48
2019-06-26T18:35:40.646Z,98139.30
2019-06-26T18:38:09.406Z,98145.44
2019-06-26T18:40:38.088Z,98144.47
2019-06-26T18:43:15.561Z,98143.84
2019-06-26T18:45:50.074Z,98140.26
2019-06-26T18:48:24.971Z,98138.69
2019-06-26T18:51:11.579Z,98146.21
2019-06-26T18:53:53.196Z,98152.12
2019-06-26T18:56:30.329Z,98169.80
2019-06-26T18:59:49.094Z,98168.76
2019-06-26T19:02:36.980Z,98169.66
2019-06-26T19:07:39.985Z,98172.95
2019-06-26T19:10:09.075Z,98173.69
2019-06-26T19:12:37.819Z,98177.67
2019-06-26T19:15:07.585Z,98180.30
2019-06-26T19:17:47.174Z,98182.14
2019-06-26T19:20:39.447Z,98192.77
2019-06-26T19:23:08.979Z,98193.20
2019-06-26T19:25:37.598Z,98198.89
2019-06-26T19:28:07.841Z,98208.61
2019-06-26T19:30:36.639Z,98209.50
2019-06-26T19:33:05.377Z,98216.14
2019-06-26T19:35:34.006Z,98213.01
2019-06-26T19:38:12.305Z,98219.42
2019-06-26T19:40:41.513Z,98221.59
2019-06-26T19:43:11.220Z,98227.20
2019-06-26T19:45:41.200Z,98229.55
2019-06-26T19:48:09.885Z,98232.98
2019-06-26T19:50:38.393Z,98233.98
2019-06-26T19:53:07.053Z,98240.91
2019-06-26T19:55:35.743Z,98241.58
2019-06-26T19:58:04.429Z,98246.56
2019-06-26T20:00:35.638Z,98246.06
2019-06-26T20:03:06.016Z,98245.08
2019-06-26T20:05:36.047Z,98246.64
2019-06-26T20:08:05.073Z,98250.83
2019-06-26T20:10:37.859Z,98250.87
2019-06-26T20:13:17.870Z,98257.32
2019-06-26T20:15:50.299Z,98260.79
2019-06-26T20:18:18.931Z,98261.81
2019-06-26T20:20:47.461Z,98260.56
2019-06-26T20:23:16.013Z,98262.47
2019-06-26T20:25:44.653Z,98264.20
2019-06-26T20:28:13.347Z,98261.68
2019-06-26T20:30:42.038Z,98262.78
2019-06-26T20:33:10.726Z,98265.00
2019-06-26T20:35:39.386Z,98270.79
2019-06-26T20:38:07.956Z,98273.03
2019-06-26T20:40:36.695Z,98280.13
2019-06-26T20:43:05.423Z,98280.68
2019-06-26T20:45:33.938Z,98278.03
2019-06-26T20:48:02.573Z,98270.78
2019-06-26T20:50:31.043Z,98278.59
2019-06-26T20:52:59.609Z,98282.77
2019-06-26T20:55:28.125Z,98280.91
2019-06-26T20:57:56.608Z,98284.17
2019-06-26T21:00:25.462Z,98284.80
2019-06-26T21:02:54.582Z,98294.80
2019-06-26T21:05:23.230Z,98290.34
2019-06-26T21:07:51.871Z,98295.59
2019-06-26T21:10:20.516Z,98305.35
2019-06-26T21:12:49.010Z,98300.55
2019-06-26T21:15:17.649Z,98310.28
2019-06-26T21:17:46.244Z,98311.42
2019-06-26T21:20:15.318Z,98305.02
2019-06-26T21:22:43.795Z,98311.41
2019-06-26T21:25:19.010Z,98315.35
2019-06-26T21:27:42.596Z,98310.36
2019-06-26T21:30:11.359Z,98314.06
2019-06-26T21:32:39.866Z,98320.80
2019-06-26T21:35:11.022Z,98325.30
2019-06-26T21:37:39.638Z,98322.07
2019-06-26T21:40:08.388Z,98319.69
2019-06-26T21:42:36.937Z,98320.55
2019-06-26T21:45:06.371Z,98325.91
2019-06-26T21:47:35.061Z,98326.84
2019-06-26T21:50:04.405Z,98336.94
2019-06-26T21:52:32.998Z,98329.63
2019-06-26T21:55:01.575Z,98331.73
2019-06-26T21:57:30.172Z,98337.75
2019-06-26T21:59:58.717Z,98342.86
2019-06-26T22:02:27.355Z,98342.34
2019-06-26T22:04:55.899Z,98345.04
2019-06-26T22:07:24.728Z,98348.03
2019-06-26T22:09:53.461Z,98349.42
2019-06-26T22:12:22.070Z,98349.00
2019-06-26T22:14:50.629Z,98360.39
2019-06-26T22:17:19.517Z,98363.12
2019-06-26T22:19:48.009Z,98364.42
2019-06-26T22:22:16.652Z,98367.33
2019-06-26T22:24:45.313Z,98367.27
2019-06-26T22:27:16.690Z,98366.88
2019-06-26T22:29:45.168Z,98365.34
2019-06-26T22:32:14.028Z,98365.50
2019-06-26T22:34:42.598Z,98362.22
2019-06-26T22:37:11.111Z,98363.96
2019-06-26T22:39:39.614Z,98360.14
2019-06-26T22:42:08.106Z,98368.41
2019-06-26T22:44:36.697Z,98373.52
2019-06-26T22:47:05.247Z,98375.28
2019-06-26T22:49:33.893Z,98376.66
2019-06-26T22:52:02.441Z,98387.11
2019-06-26T22:54:30.967Z,98381.69
2019-06-26T22:56:59.601Z,98390.26
2019-06-26T22:59:28.194Z,98381.27
2019-06-26T23:01:56.781Z,98381.73
2019-06-26T23:04:25.265Z,98393.02
2019-06-26T23:06:53.871Z,98397.65
2019-06-26T23:09:22.509Z,98398.30
2019-06-26T23:11:51.072Z,98391.20
2019-06-26T23:14:19.665Z,98397.56
2019-06-26T23:16:48.222Z,98398.06
2019-06-26T23:19:16.834Z,98384.50
2019-06-26T23:21:45.543Z,98390.70
2019-06-26T23:24:14.041Z,98387.88
2019-06-26T23:26:42.596Z,98385.52
2019-06-26T23:29:11.281Z,98387.07
2019-06-26T23:31:39.752Z,98383.63
2019-06-26T23:34:08.338Z,98399.39
2019-06-26T23:36:36.923Z,98389.06
2019-06-26T23:39:06.165Z,98392.75
2019-06-26T23:41:34.807Z,98392.96
2019-06-26T23:44:03.396Z,98399.67
2019-06-26T23:46:31.902Z,98398.55
2019-06-26T23:49:01.537Z,98398.27
2019-06-26T23:51:30.242Z,98398.79
2019-06-26T23:53:58.923Z,98397.17
2019-06-26T23:56:39.955Z,98399.70
2019-06-26T23:58:57.660Z,98406.05
